Neah Bay, WA

2:04 AM PDT on May 29, 2015 (GMT -0700)
Hoko | | Change Station
CLOSE
Current Station
Personal Weather Station
Location: Sekiu, WA
Elevation: 56 ft
Nearby Weather Stations

Elev 56 ft 48.29 °N, 124.36 °W | Updated 4 minutes ago

Fog
Fog
50.9 °F
Feels Like 50.9 °F
N
0.0
Wind Variable Wind from North
Gusts 0.0 mph

Today
High -- | Low -- °F
--% Chance of Precip.
Yesterday
High -- | Low -- °F
Precip. -- in
5:23 AM 9:08 PM
Waxing Gibbous, 82% visible
Pressure 30.04 in
Visibility 0.2 miles
Clouds
Dew Point 50 °F
Humidity 97%
Rainfall 0.00 in
Snow Depth Not available.
UV Not available.
Pollen 7.70 out of 12
Air Quality Not available.
Flu Activity Sporadic
METAR KUIL 290853Z AUTO 00000KT 1/4SM FG VV002 11/10 A3004 RMK AO2 SLP171 T01110100 57001

More Conditions Fewer Conditions

Pressure 30.04 in
Visibility 0.2 miles
Clouds
Dew Point 50 °F
Humidity 97%
Rainfall 0.00 in
Snow Depth Not available.
UV Not available.
Pollen 7.70 out of 12
Air Quality Not available.
Flu Activity Sporadic
METAR KUIL 290853Z AUTO 00000KT 1/4SM FG VV002 11/10 A3004 RMK AO2 SLP171 T01110100 57001

More Conditions Fewer Conditions

10-Day Weather Forecast

Almanac

Astronomy

May. 29, 2015 Rise Set
Actual Time
Civil Twilight
Nautical Twilight
Astronomical Twilight
Moon
Length of Visible Light
Length of Day
Tomorrow will be .
, % of the Moon is Illuminated

Today's Extremes

State Highs State Lows

Community

WunderPhotos

Upload Photos

1,825,221 photos uploaded!

WunderBlogs® & News

Nearby

Air Quality

  Air Quality AQ Index Pollutant
Not available.

Snow Depth

Station Depth Elevation

Earthquake Activity

City Distance Mag. Time & Date
Minimum magnitude displayed is 2.5.

Coastal Water Temperatures

Place Temperature

Stations

Nearby Weather Stations

Station Location Temp. Windchill Dew Point Humidity Wind Precip. Elev Updated Type